Latest Weather Observations for Port Hedland

IDW60801

Issued at 3:32 pm WST Monday 8 February 2016 (issued every 30 minutes, with the page automatically refreshed every 10 minutes)

About weather observations | Map of weather stations | Latest weather observations for WA | Other Formats
Station Details ID: 004032 Name: PORT HEDLAND AIRPORT Lat: -20.37 Lon: 118.63 Height: 6.4 m
Data from the previous 72 hours. | See also: Recent months at Port Hedland
Date/Time
WST
Temp
°C
App
Temp
°C
Dew
Point
Rel
Hum
%
Delta-T
°C
Wind Press
QNH
hPa
Press
MSL
hPa
Rain
since 9 am
mm
Dir
 
Spd
km/h
Gust
km/h
Spd
kts
Gust
kts
08/03:30pm 38.5 53.2 38.5 100 0.0 N 20 28 11 15 1006.4 - 0.0
08/03:00pm 38.5 53.2 38.5 100 0.0 N 20 26 11 14 1006.4 1006.3 0.0
08/02:30pm 39.4 49.9 35.8 82 2.9 NNW 26 33 14 18 1006.4 - 0.0
08/02:00pm 39.2 39.5 20.7 34 12.6 NNW 20 28 11 15 1006.6 - 0.0
08/01:30pm 39.3 39.5 20.5 33 12.8 NNW 20 28 11 15 1007.0 - 0.0
08/01:00pm 39.5 40.1 21.3 35 12.5 N 20 24 11 13 1007.4 - 0.0
08/12:30pm 38.4 40.2 23.6 42 10.4 N 20 28 11 15 1007.9 - 0.0
08/12:00pm 37.4 38.4 22.2 41 10.5 N 20 32 11 17 1008.3 1008.2 0.0
08/11:30am 37.8 39.1 22.3 41 10.7 N 19 26 10 14 1008.5 - 0.0
08/11:00am 40.5 39.3 15.0 22 16.2 NE 15 24 8 13 1008.8 - 0.0
08/10:30am 39.4 39.3 16.0 25 15.0 NE 11 20 6 11 1009.0 - 0.0
08/10:00am 38.7 39.5 17.2 28 14.0 S 9 11 5 6 1009.1 - 0.0
08/09:30am 35.8 38.1 21.4 43 9.8 S 11 17 6 9 1009.4 - 0.0
08/09:00am 34.5 37.1 21.9 48 8.6 S 11 17 6 9 1009.6 1009.5 0.0
08/08:30am 32.4 36.8 23.8 60 6.0 SSW 7 11 4 6 1009.6 - 0.0
08/08:00am 31.4 37.2 26.1 73 3.8 SW 7 13 4 7 1009.6 - 0.0
08/07:30am 29.8 36.0 26.6 83 2.3 WSW 7 11 4 6 1009.6 - 0.0
08/07:00am 28.6 34.6 26.1 86 1.8 SSE 6 9 3 5 1009.4 - 0.0
08/06:30am 26.9 33.5 25.8 94 0.8 W 2 7 1 4 1009.3 - 0.0
08/06:00am 25.9 30.6 24.9 94 0.7 W 9 11 5 6 1008.9 1008.8 0.0
08/05:30am 25.7 30.5 24.5 93 0.8 W 7 9 4 5 1009.0 - 0.0
08/05:00am 25.9 30.8 24.7 93 0.8 NW 7 11 4 6 1008.8 - 0.0
08/04:30am 26.7 32.3 25.4 93 0.9 W 6 7 3 4 1008.4 - 0.0
08/04:00am 26.5 30.8 24.9 91 1.1 WNW 11 13 6 7 1008.5 - 0.0
08/03:30am 26.6 30.9 24.9 90 1.2 WNW 11 13 6 7 1008.6 - 0.0
08/03:00am 27.2 32.0 25.1 88 1.5 NNW 9 11 5 6 1008.7 1008.6 0.0
08/02:30am 27.4 32.4 24.5 84 2.0 WNW 6 9 3 5 1008.9 - 0.0
08/02:00am 27.7 32.5 24.2 81 2.4 WNW 6 7 3 4 1009.2 - 0.0
08/01:30am 27.6 31.9 23.7 79 2.7 WNW 7 9 4 5 1009.0 - 0.0
08/01:00am 28.0 33.2 23.5 76 3.1 NW 2 7 1 4 1009.4 - 0.0
08/12:30am 27.9 30.6 22.1 70 3.9 W 11 13 6 7 1009.4 - 0.0
08/12:00am 28.0 30.3 22.1 70 4.0 W 13 15 7 8 1009.7 1009.6 0.0
 
Date/Time
WST
Temp
°C
App
Temp
°C
Dew
Point
Rel
Hum
%
Delta-T
°C
Wind Press
QNH
hPa
Press
MSL
hPa
Rain
since 9 am
mm
Dir
 
Spd
km/h
Gust
km/h
Spd
kts
Gust
kts
07/11:30pm 28.2 31.0 22.3 70 4.0 WNW 11 17 6 9 1010.1 - 0.0
07/11:00pm 28.2 31.4 22.4 71 3.9 NW 9 9 5 5 1010.2 - 0.0
07/10:30pm 27.9 31.0 22.1 70 3.9 WNW 9 11 5 6 1010.0 - 0.0
07/10:00pm 28.1 31.1 22.7 72 3.7 W 11 13 6 7 1010.0 - 0.0
07/09:30pm 28.9 31.5 22.6 69 4.3 W 13 19 7 10 1009.7 - 0.0
07/09:00pm 29.8 31.1 22.3 64 5.1 W 19 22 10 12 1009.3 1009.2 0.0
07/08:30pm 29.5 32.7 22.3 65 4.9 W 9 13 5 7 1008.8 - 0.0
07/08:00pm 30.5 33.5 21.9 60 5.8 WNW 9 13 5 7 1008.3 - 0.0
07/07:30pm 31.4 33.0 19.9 50 7.6 NW 11 15 6 8 1007.9 - 0.0
07/07:00pm 33.1 32.1 16.7 37 10.4 WNW 17 22 9 12 1007.3 - 0.0
07/06:30pm 34.6 31.9 15.5 32 12.0 WNW 24 32 13 17 1006.7 - 0.0
07/06:00pm 35.6 31.9 14.0 27 13.3 WNW 26 32 14 17 1006.3 1006.2 0.0
07/05:30pm 35.8 32.7 17.4 33 11.9 WNW 30 35 16 19 1006.0 - 0.0
07/05:00pm 36.4 33.1 17.0 31 12.5 NW 30 35 16 19 1005.6 - 0.0
07/04:30pm 36.6 33.2 17.7 32 12.3 NW 32 41 17 22 1005.5 - 0.0
07/04:00pm 39.2 34.1 10.7 18 16.9 NNW 28 33 15 18 1005.4 - 0.0
07/03:30pm 40.3 35.2 7.7 14 18.6 NNW 24 32 13 17 1005.5 - 0.0
07/03:00pm 40.0 34.5 7.7 14 18.5 NNW 26 33 14 18 1005.8 1005.7 0.0
07/02:30pm 40.8 35.5 6.7 12 19.3 N 24 32 13 17 1006.1 - 0.0
07/02:00pm 40.5 35.0 6.1 12 19.2 N 24 30 13 16 1006.3 - 0.0
07/01:30pm 39.7 34.2 6.0 13 18.7 N 24 32 13 17 1006.8 - 0.0
07/01:00pm 41.1 35.8 6.7 12 19.5 N 24 33 13 18 1007.2 - 0.0
07/12:30pm 40.1 35.1 6.5 13 18.9 NNE 22 28 12 15 1007.5 - 0.0
07/12:00pm 39.6 35.9 8.1 15 18.1 NNE 17 22 9 12 1007.9 1007.8 0.0
07/11:30am 38.4 34.6 7.5 15 17.5 NNE 17 22 9 12 1008.3 - 0.0
07/11:00am 38.9 35.3 9.8 17 17.1 NNE 19 24 10 13 1008.6 - 0.0
07/10:30am 39.7 34.7 1.5 9 19.9 E 17 22 9 12 1008.6 - 0.0
07/10:00am 39.1 33.6 1.6 10 19.5 E 20 35 11 19 1008.8 - 0.0
07/09:30am 38.2 33.2 4.6 12 18.2 E 20 28 11 15 1008.8 - 0.0
07/09:00am 37.6 34.1 8.7 17 16.6 ESE 17 26 9 14 1008.9 1008.8 0.0
07/08:30am 35.3 33.2 13.5 27 13.3 ESE 17 22 9 12 1008.9 - 0.0
07/08:00am 32.6 33.0 19.0 44 8.9 S 15 19 8 10 1008.7 - 0.0
07/07:30am 29.8 32.1 22.1 63 5.2 S 13 17 7 9 1008.5 - 0.0
07/07:00am 27.4 30.3 23.2 78 2.9 S 13 15 7 8 1008.1 - 0.0
07/06:30am 25.3 28.6 23.2 88 1.4 SSW 11 13 6 7 1007.9 - 0.0
07/06:00am 24.4 28.0 23.1 92 0.9 SW 9 9 5 5 1007.5 1007.4 0.0
07/05:30am 24.4 28.4 23.1 92 0.9 SW 7 9 4 5 1007.4 - 0.0
07/05:00am 24.6 28.2 23.1 91 1.0 SW 9 9 5 5 1007.3 - 0.0
07/04:30am 24.6 28.3 23.3 92 0.9 W 9 11 5 6 1007.3 - 0.0
07/04:00am 24.8 28.1 23.2 91 1.1 W 11 13 6 7 1007.3 - 0.0
07/03:30am 24.9 28.9 23.1 90 1.2 WSW 7 9 4 5 1007.1 - 0.0
07/03:00am 25.1 29.2 23.3 90 1.2 WSW 7 9 4 5 1007.1 1007.0 0.0
07/02:30am 25.3 29.0 23.2 88 1.4 WSW 9 11 5 6 1007.3 - 0.0
07/02:00am 25.8 29.2 23.3 86 1.7 SW 11 13 6 7 1007.3 - 0.0
07/01:30am 26.1 30.0 23.6 86 1.7 WSW 9 13 5 7 1007.5 - 0.0
07/01:00am 26.5 30.5 23.7 84 1.9 SW 9 9 5 5 1007.8 - 0.0
07/12:30am 26.5 30.5 23.7 84 1.9 WSW 9 11 5 6 1008.0 - 0.0
07/12:00am 26.8 30.4 23.7 83 2.1 WSW 11 11 6 6 1008.0 1007.9 0.0
 
Date/Time
WST
Temp
°C
App
Temp
°C
Dew
Point
Rel
Hum
%
Delta-T
°C
Wind Press
QNH
hPa
Press
MSL
hPa
Rain
since 9 am
mm
Dir
 
Spd
km/h
Gust
km/h
Spd
kts
Gust
kts
06/11:30pm 27.2 31.0 24.0 83 2.2 WSW 11 13 6 7 1008.2 - 0.0
06/11:00pm 27.6 31.5 24.3 82 2.3 WSW 11 15 6 8 1008.3 - 0.0
06/10:30pm 28.0 31.4 24.6 82 2.4 WSW 15 19 8 10 1008.2 - 0.0
06/10:00pm 28.4 31.3 24.5 79 2.7 W 17 20 9 11 1008.0 - 0.0
06/09:30pm 28.8 31.2 24.2 76 3.2 W 19 26 10 14 1007.7 - 0.0
06/09:00pm 29.1 30.9 24.2 75 3.4 W 22 28 12 15 1007.5 1007.4 0.0
06/08:30pm 29.2 31.2 24.6 76 3.2 W 22 28 12 15 1007.1 - 0.0
06/08:00pm 29.5 31.7 24.2 73 3.7 W 20 28 11 15 1006.9 - 0.0
06/07:30pm 29.9 32.1 24.2 71 4.0 W 20 26 11 14 1006.6 - 0.0
06/07:00pm 30.3 31.9 23.8 68 4.5 WNW 22 30 12 16 1006.2 - 0.0
06/06:30pm 30.9 31.1 23.4 64 5.2 WNW 28 35 15 19 1005.6 - 0.0
06/06:00pm 32.1 32.0 23.6 60 5.9 WNW 30 35 16 19 1005.2 1005.1 0.0
06/05:30pm 33.3 33.0 23.2 55 7.0 WNW 30 35 16 19 1005.1 - 0.0
06/05:00pm 34.4 33.8 22.0 48 8.5 NW 28 35 15 19 1005.0 - 0.0
06/04:30pm 34.2 33.8 23.1 52 7.7 NW 30 35 16 19 1005.0 - 0.0
06/04:00pm 35.2 35.3 24.0 52 7.9 NW 30 35 16 19 1005.0 - 0.0
06/03:30pm 35.0 35.2 24.1 53 7.7 NW 30 35 16 19 1005.3 - 0.0
06/03:00pm 34.5 35.0 24.6 56 7.0 NNW 30 35 16 19 1005.5 1005.4 0.0
06/02:30pm 35.7 36.2 23.9 50 8.3 NNW 28 33 15 18 1005.8 - 0.0
06/02:00pm 35.1 35.9 24.5 54 7.5 NW 28 35 15 19 1006.2 - 0.0
06/01:30pm 36.0 37.0 24.1 50 8.4 NW 26 33 14 18 1006.5 - 0.0
06/01:00pm 34.9 36.4 24.4 54 7.4 NNW 24 33 13 18 1006.9 - 0.0
06/12:30pm 34.8 36.3 24.3 54 7.4 NW 24 28 13 15 1007.3 - 0.0
06/12:00pm 34.1 36.5 24.6 57 6.7 NW 20 28 11 15 1007.8 1007.7 0.0
06/11:30am 33.9 36.6 25.0 59 6.3 NNW 20 28 11 15 1008.1 - 0.0
06/11:00am 33.1 36.1 25.5 64 5.4 NNW 20 26 11 14 1008.7 - 0.0
06/10:30am 33.5 37.0 26.0 65 5.4 NNW 19 26 10 14 1008.8 - 0.0
06/10:00am 33.0 36.0 26.2 67 4.9 NNW 22 28 12 15 1009.0 - 0.0
06/09:30am 33.3 37.3 26.2 66 5.1 NNW 17 24 9 13 1009.1 - 0.0
06/09:00am 33.7 37.5 23.5 55 7.1 SSW 9 13 5 7 1009.1 1009.0 0.0
06/08:30am 32.4 36.6 24.1 61 5.8 W 9 15 5 8 1008.9 - 0.0
06/08:00am 31.1 35.8 25.5 72 4.0 W 11 17 6 9 1008.7 - 0.0
06/07:30am 29.8 34.4 25.9 79 2.8 W 13 15 7 8 1008.6 - 0.0
06/07:00am 28.8 33.7 25.8 84 2.1 W 11 15 6 8 1008.4 - 0.0
06/06:30am 27.5 32.8 25.8 90 1.2 WSW 9 11 5 6 1008.1 - 0.0
06/06:00am 26.7 31.7 25.4 93 0.9 W 9 11 5 6 1007.8 1007.7 0.0
06/05:30am 26.8 31.8 25.4 92 1.0 W 9 11 5 6 1007.4 - 0.0
06/05:00am 27.0 31.6 25.4 91 1.1 W 11 13 6 7 1007.2 - 0.0
06/04:30am 27.1 31.4 25.5 91 1.1 W 13 15 7 8 1007.1 - 0.0
06/04:00am 27.3 31.6 25.5 90 1.3 W 13 15 7 8 1007.0 - 0.0
06/03:30am 27.3 32.2 25.3 89 1.4 WNW 9 11 5 6 1007.0 - 0.0
06/03:00am 27.5 31.7 25.4 88 1.5 WNW 13 17 7 9 1007.0 1006.9 0.0
06/02:30am 27.7 31.1 25.3 87 1.7 W 17 20 9 11 1006.9 - 0.0
06/02:00am 27.9 31.4 25.5 87 1.7 W 17 20 9 11 1007.0 - 0.0
06/01:30am 28.1 31.4 25.7 87 1.7 W 19 24 10 13 1007.0 - 0.0
06/01:00am 28.3 32.4 25.2 83 2.2 WNW 13 15 7 8 1007.3 - 0.0
06/12:30am 28.4 31.8 24.1 77 3.0 W 13 17 7 9 1007.5 - 0.0
06/12:00am 28.3 31.3 23.3 74 3.4 W 13 15 7 8 1007.8 1007.7 0.0
 
Date/Time
WST
Temp
°C
App
Temp
°C
Dew
Point
Rel
Hum
%
Delta-T
°C
Wind Press
QNH
hPa
Press
MSL
hPa
Rain
since 9 am
mm
Dir
 
Spd
km/h
Gust
km/h
Spd
kts
Gust
kts
05/11:30pm 28.7 31.8 23.6 74 3.5 W 13 17 7 9 1008.2 - 0.0
05/11:00pm 28.9 32.1 23.7 73 3.6 W 13 15 7 8 1008.5 - 0.0
05/10:30pm 29.1 31.9 23.6 72 3.8 W 15 20 8 11 1008.4 - 0.0
05/10:00pm 29.3 31.5 23.3 70 4.1 W 17 22 9 12 1008.2 - 0.0
05/09:30pm 29.5 31.3 23.2 69 4.3 W 19 24 10 13 1007.9 - 0.0
05/09:00pm 29.6 31.1 23.0 67 4.5 WNW 20 26 11 14 1007.4 1007.3 0.0
05/08:30pm 29.7 31.2 23.0 67 4.6 WNW 20 26 11 14 1007.1 - 0.0
05/08:00pm 30.0 31.4 22.8 65 4.9 WNW 20 24 11 13 1006.7 - 0.0
05/07:30pm 30.1 31.5 22.8 65 5.0 WNW 20 26 11 14 1006.2 - 0.0
05/07:00pm 30.4 30.8 22.5 62 5.4 WNW 24 30 13 16 1005.8 - 0.0
05/06:30pm 31.1 31.4 22.3 59 6.0 WNW 24 32 13 17 1005.3 - 0.0
05/06:00pm 32.4 32.2 21.3 52 7.5 NW 24 33 13 18 1004.9 1004.8 0.0
05/05:30pm 33.0 32.6 21.7 51 7.7 NW 26 35 14 19 1004.5 - 0.0
05/05:00pm 33.1 32.2 22.1 52 7.5 NW 30 35 16 19 1004.3 - 0.0
05/04:30pm 34.1 33.2 22.1 49 8.2 NW 30 39 16 21 1004.2 - 0.0
05/04:00pm 34.6 33.3 20.6 44 9.4 NW 28 35 15 19 1004.5 - 0.0

Other Formats:

Comma delimited format used in spreadsheet applications
http://www.bom.gov.au/fwo/IDW60801/IDW60801.94312.axf

JavaScript Object Notation format (JSON) in row-major order
http://www.bom.gov.au/fwo/IDW60801/IDW60801.94312.json